createdAt,value
2023-01-26T00:02:17.979Z,69.20
2023-01-26T00:04:46.354Z,71.50
2023-01-26T00:07:15.001Z,71.77
2023-01-26T00:09:43.342Z,74.37
2023-01-26T00:12:11.849Z,71.60
2023-01-26T00:14:52.588Z,72.63
2023-01-26T00:17:28.738Z,72.23
2023-01-26T00:19:58.458Z,68.17
2023-01-26T00:22:28.113Z,74.23
2023-01-26T00:24:56.525Z,74.17
2023-01-26T00:27:24.875Z,72.20
2023-01-26T00:29:53.348Z,71.93
2023-01-26T00:32:22.973Z,74.20
2023-01-26T00:34:51.357Z,70.03
2023-01-26T00:37:19.822Z,69.27
2023-01-26T00:39:48.248Z,71.53
2023-01-26T00:42:16.876Z,71.73
2023-01-26T00:44:45.375Z,71.63
2023-01-26T00:47:14.705Z,76.10
2023-01-26T00:49:44.352Z,71.33
2023-01-26T00:52:13.608Z,72.00
2023-01-26T00:54:42.325Z,74.10
2023-01-26T00:57:10.982Z,71.83
2023-01-26T00:59:39.464Z,73.93
2023-01-26T01:02:08.058Z,74.10
2023-01-26T01:04:36.443Z,71.90
2023-01-26T01:07:06.006Z,71.20
2023-01-26T01:09:34.642Z,72.20
2023-01-26T01:12:03.078Z,71.53
2023-01-26T01:14:31.607Z,71.33
2023-01-26T01:17:00.118Z,70.43
2023-01-26T01:19:28.577Z,69.67
2023-01-26T01:21:57.107Z,76.17
2023-01-26T01:24:26.809Z,70.03
2023-01-26T01:26:55.257Z,70.67
2023-01-26T01:29:23.667Z,71.90
2023-01-26T01:31:52.140Z,71.33
2023-01-26T01:34:20.945Z,72.20
2023-01-26T01:36:49.458Z,73.60
2023-01-26T01:41:46.791Z,74.33
2023-01-26T01:44:17.749Z,72.20
2023-01-26T01:46:50.124Z,74.13
2023-01-26T01:49:24.114Z,70.23
2023-01-26T01:51:55.249Z,71.13
2023-01-26T01:54:30.333Z,71.67
2023-01-26T01:57:03.602Z,73.30
2023-01-26T01:59:32.612Z,70.47
2023-01-26T02:02:01.303Z,69.47
2023-01-26T02:04:30.120Z,72.73
2023-01-26T02:07:01.610Z,70.73
2023-01-26T02:09:51.787Z,70.50
2023-01-26T02:12:24.224Z,74.50
2023-01-26T02:14:54.723Z,72.47
2023-01-26T02:17:23.099Z,74.00
2023-01-26T02:19:59.498Z,71.60
2023-01-26T02:22:36.716Z,73.03
2023-01-26T02:25:10.947Z,73.33
2023-01-26T02:27:41.594Z,72.30
2023-01-26T02:30:12.448Z,73.60
2023-01-26T02:32:40.995Z,71.73
2023-01-26T02:35:10.149Z,69.33
2023-01-26T02:37:38.583Z,71.63
2023-01-26T02:40:14.309Z,72.50
2023-01-26T02:42:44.472Z,72.80
2023-01-26T02:45:15.407Z,71.50
2023-01-26T02:47:45.018Z,71.03
2023-01-26T02:50:13.803Z,74.37
2023-01-26T02:52:42.384Z,73.57
2023-01-26T02:55:25.054Z,70.20
2023-01-26T02:57:56.802Z,72.07
2023-01-26T03:00:27.273Z,71.53
2023-01-26T03:02:58.133Z,73.47
2023-01-26T03:05:26.536Z,73.37
2023-01-26T03:07:55.069Z,73.93
2023-01-26T03:10:24.268Z,73.27
2023-01-26T03:12:54.614Z,76.30
2023-01-26T03:15:40.227Z,73.30
2023-01-26T03:18:27.760Z,73.80
2023-01-26T03:21:13.606Z,71.07
2023-01-26T03:23:59.429Z,74.67
2023-01-26T03:26:45.528Z,74.87
2023-01-26T03:29:15.587Z,72.97
2023-01-26T03:31:43.983Z,74.17
2023-01-26T03:34:12.675Z,75.37
2023-01-26T03:36:41.104Z,76.63
2023-01-26T03:39:09.377Z,76.00
2023-01-26T03:41:55.233Z,77.37
2023-01-26T03:44:42.310Z,74.27
2023-01-26T03:47:28.179Z,71.90
2023-01-26T03:50:14.126Z,57.70
2023-01-26T03:52:59.926Z,52.73
2023-01-26T03:55:45.599Z,52.80
2023-01-26T03:58:13.979Z,31.03
2023-01-26T04:00:43.488Z,20.53
2023-01-26T04:03:29.473Z,8.87
2023-01-26T04:06:17.946Z,9.03
2023-01-26T04:08:47.788Z,7.40
2023-01-26T04:11:16.201Z,8.80
2023-01-26T04:14:02.635Z,7.63
2023-01-26T04:16:49.890Z,9.63
2023-01-26T04:19:35.365Z,9.03
2023-01-26T04:22:04.055Z,8.13
2023-01-26T04:24:32.490Z,12.17
2023-01-26T04:27:00.878Z,10.93
2023-01-26T04:29:29.330Z,9.63
2023-01-26T04:31:58.969Z,11.57
2023-01-26T04:34:27.405Z,10.50
2023-01-26T04:36:55.780Z,11.90
2023-01-26T04:39:24.232Z,11.20
2023-01-26T04:41:52.557Z,10.27
2023-01-26T04:44:20.928Z,10.80
2023-01-26T04:46:49.312Z,10.70
2023-01-26T04:49:18.960Z,10.07
2023-01-26T04:51:47.413Z,11.40
2023-01-26T04:54:16.078Z,9.30
2023-01-26T04:56:44.449Z,8.33
2023-01-26T04:59:12.888Z,9.40
2023-01-26T05:01:41.308Z,8.97
2023-01-26T05:04:11.676Z,7.97
2023-01-26T05:06:42.141Z,8.47
2023-01-26T05:09:10.520Z,10.37
2023-01-26T05:11:38.818Z,6.73
2023-01-26T05:14:07.462Z,9.30
2023-01-26T05:16:35.936Z,9.40
2023-01-26T05:19:04.171Z,8.57
2023-01-26T05:21:32.547Z,10.50
2023-01-26T05:24:02.168Z,7.53
2023-01-26T05:26:30.655Z,7.37
2023-01-26T05:28:58.937Z,7.37
2023-01-26T05:31:27.239Z,7.60
2023-01-26T05:33:55.942Z,8.47
2023-01-26T05:36:24.579Z,8.43
2023-01-26T05:38:54.389Z,8.63
2023-01-26T05:41:24.014Z,7.40
2023-01-26T05:43:52.273Z,8.43
2023-01-26T05:46:20.841Z,7.67
2023-01-26T05:48:49.271Z,7.30
2023-01-26T05:51:17.674Z,8.23
2023-01-26T05:53:46.118Z,6.90
2023-01-26T05:56:14.491Z,7.03
2023-01-26T05:58:44.283Z,7.73
2023-01-26T06:01:12.703Z,8.93
2023-01-26T06:03:41.099Z,5.77
2023-01-26T06:06:09.416Z,8.80
2023-01-26T06:08:37.808Z,6.40
2023-01-26T06:11:06.311Z,7.90
2023-01-26T06:13:34.657Z,6.87
2023-01-26T06:16:05.050Z,4.67
2023-01-26T06:18:35.039Z,5.73
2023-01-26T06:21:03.344Z,6.73
2023-01-26T06:23:32.140Z,8.70
2023-01-26T06:26:00.755Z,8.37
2023-01-26T06:28:29.255Z,5.97
2023-01-26T06:31:01.434Z,7.60
2023-01-26T06:33:34.996Z,8.47
2023-01-26T06:36:03.492Z,8.63
2023-01-26T06:38:32.621Z,9.03
2023-01-26T06:41:03.087Z,8.10
2023-01-26T06:43:31.696Z,9.17
2023-01-26T06:46:00.435Z,8.80
2023-01-26T06:48:32.389Z,10.07
2023-01-26T06:51:06.894Z,7.80
2023-01-26T06:53:38.619Z,7.50
2023-01-26T06:56:07.328Z,8.70
2023-01-26T06:58:35.833Z,8.43
2023-01-26T07:01:04.209Z,8.87
2023-01-26T07:03:33.962Z,7.73
2023-01-26T07:06:02.382Z,9.90
2023-01-26T07:08:30.821Z,9.27
2023-01-26T07:10:59.203Z,6.83
2023-01-26T07:13:27.625Z,7.43
2023-01-26T07:16:02.619Z,7.03
2023-01-26T07:18:31.383Z,7.07
2023-01-26T07:21:03.651Z,6.30
2023-01-26T07:23:34.595Z,5.20
2023-01-26T07:26:03.516Z,6.60
2023-01-26T07:28:31.821Z,6.43
2023-01-26T07:31:00.478Z,6.33
2023-01-26T07:33:30.285Z,5.30
2023-01-26T07:35:59.610Z,5.87
2023-01-26T07:38:30.071Z,5.70
2023-01-26T07:40:58.771Z,6.30
2023-01-26T07:43:27.118Z,6.93
2023-01-26T07:45:56.029Z,7.82
2023-01-26T07:48:25.400Z,7.13
2023-01-26T07:50:53.842Z,5.93
2023-01-26T07:53:23.093Z,5.90
2023-01-26T07:55:52.807Z,5.60
2023-01-26T07:58:21.398Z,4.73
2023-01-26T08:00:49.644Z,6.00
2023-01-26T08:03:17.972Z,5.93
2023-01-26T08:05:47.257Z,5.20
2023-01-26T08:08:15.942Z,6.07
2023-01-26T08:10:44.259Z,5.23
2023-01-26T08:13:17.080Z,5.53
2023-01-26T08:15:45.729Z,6.33
2023-01-26T08:18:14.381Z,4.50
2023-01-26T08:20:43.032Z,3.97
2023-01-26T08:23:11.402Z,5.77
2023-01-26T08:25:39.698Z,5.73
2023-01-26T08:28:08.197Z,4.00
2023-01-26T08:30:37.831Z,4.50
2023-01-26T08:33:06.445Z,3.87
2023-01-26T08:35:34.905Z,3.77
2023-01-26T08:38:03.244Z,5.10
2023-01-26T08:40:31.824Z,6.93
2023-01-26T08:43:02.844Z,5.20
2023-01-26T08:45:32.022Z,7.17
2023-01-26T08:48:01.834Z,6.47
2023-01-26T08:50:30.339Z,6.67
2023-01-26T08:52:58.766Z,6.17
2023-01-26T08:55:28.600Z,6.20
2023-01-26T08:57:57.695Z,6.40
2023-01-26T09:00:26.480Z,5.33
2023-01-26T09:03:02.430Z,4.90
2023-01-26T09:05:34.449Z,4.97
2023-01-26T09:08:02.871Z,5.47
2023-01-26T09:10:31.371Z,5.50
2023-01-26T09:13:00.142Z,4.67
2023-01-26T09:15:28.874Z,5.53
2023-01-26T09:17:59.172Z,5.43
2023-01-26T09:20:30.214Z,3.87
2023-01-26T09:22:58.636Z,5.73
2023-01-26T09:25:27.175Z,5.23
2023-01-26T09:27:55.581Z,5.90
2023-01-26T09:30:24.966Z,5.87
2023-01-26T09:32:53.559Z,6.03
2023-01-26T09:35:22.471Z,4.50
2023-01-26T09:37:51.949Z,5.07
2023-01-26T09:40:27.129Z,4.50
2023-01-26T09:43:13.795Z,4.90
2023-01-26T09:45:48.130Z,5.10
2023-01-26T09:48:25.884Z,5.10
2023-01-26T09:51:00.357Z,4.87
2023-01-26T09:53:40.969Z,5.33
2023-01-26T09:56:16.521Z,4.80
2023-01-26T09:58:46.625Z,4.83
2023-01-26T10:01:22.736Z,4.43
2023-01-26T10:04:01.373Z,5.37
2023-01-26T10:06:32.116Z,4.50
2023-01-26T10:09:04.069Z,4.20
2023-01-26T10:11:37.378Z,3.57
2023-01-26T10:14:13.983Z,3.27
2023-01-26T10:16:45.080Z,3.00
2023-01-26T10:19:21.907Z,3.65
2023-01-26T10:21:52.899Z,2.90
2023-01-26T10:24:24.936Z,3.63
2023-01-26T10:26:55.472Z,4.20
2023-01-26T10:29:24.231Z,3.70
2023-01-26T10:31:52.823Z,4.60
2023-01-26T10:34:26.003Z,4.33
2023-01-26T10:37:02.928Z,4.40
2023-01-26T10:39:32.569Z,4.67
2023-01-26T10:42:02.105Z,4.07
2023-01-26T10:44:34.071Z,5.20
2023-01-26T10:47:08.209Z,4.27
2023-01-26T10:49:36.612Z,4.97
2023-01-26T10:52:15.601Z,3.30
2023-01-26T10:54:45.995Z,3.33
2023-01-26T10:57:25.976Z,4.90
2023-01-26T10:59:57.016Z,4.33
2023-01-26T11:02:28.796Z,3.93
2023-01-26T11:05:14.586Z,4.43
2023-01-26T11:07:44.172Z,4.40
2023-01-26T11:10:23.705Z,4.50
2023-01-26T11:12:52.940Z,4.63
2023-01-26T11:15:22.859Z,4.57
2023-01-26T11:17:59.633Z,4.20
2023-01-26T11:20:45.784Z,5.37
2023-01-26T11:23:23.687Z,4.47
2023-01-26T11:26:09.383Z,5.37
2023-01-26T11:28:45.944Z,4.13
2023-01-26T11:31:23.834Z,5.43
2023-01-26T11:34:02.461Z,5.23
2023-01-26T11:36:40.875Z,4.87
2023-01-26T11:39:18.868Z,4.10
2023-01-26T11:41:58.900Z,4.40
2023-01-26T11:44:42.833Z,3.90
2023-01-26T11:47:32.658Z,5.77
2023-01-26T11:50:31.953Z,5.27
2023-01-26T11:53:19.363Z,5.50
2023-01-26T11:56:05.390Z,4.23
2023-01-26T11:58:42.737Z,3.93
2023-01-26T12:01:16.473Z,3.53
2023-01-26T12:03:48.924Z,5.05
2023-01-26T12:06:19.385Z,2.00
2023-01-26T12:08:53.398Z,3.80
2023-01-26T12:11:26.748Z,2.60
2023-01-26T12:14:19.654Z,3.63
2023-01-26T12:17:23.363Z,4.97
2023-01-26T12:20:00.203Z,4.00
2023-01-26T12:22:34.412Z,4.30
2023-01-26T12:25:19.544Z,3.33
2023-01-26T12:27:52.141Z,3.87
2023-01-26T12:30:31.001Z,4.13
2023-01-26T12:32:59.506Z,4.57
2023-01-26T12:35:44.426Z,4.17
2023-01-26T12:38:18.495Z,4.40
2023-01-26T12:40:59.628Z,3.93
2023-01-26T12:43:42.144Z,3.50
2023-01-26T12:46:13.093Z,4.10
2023-01-26T12:48:46.021Z,3.67
2023-01-26T12:51:21.207Z,4.00
2023-01-26T12:53:55.845Z,3.87
2023-01-26T12:56:29.065Z,3.90
2023-01-26T12:59:01.046Z,4.33
2023-01-26T13:01:41.396Z,4.23
2023-01-26T13:04:12.591Z,3.70
2023-01-26T13:06:41.051Z,3.43
2023-01-26T13:09:23.919Z,4.50
2023-01-26T13:11:54.258Z,4.47
2023-01-26T13:14:38.388Z,4.73
2023-01-26T13:17:50.147Z,3.60
2023-01-26T13:20:47.901Z,4.53
2023-01-26T13:23:44.245Z,3.00
2023-01-26T13:26:45.498Z,3.40
2023-01-26T13:29:34.859Z,3.40
2023-01-26T13:32:58.085Z,2.83
2023-01-26T13:35:28.761Z,3.77
2023-01-26T13:38:03.063Z,3.57
2023-01-26T13:40:35.261Z,4.13
2023-01-26T13:43:24.329Z,4.30
2023-01-26T13:46:22.832Z,3.47
2023-01-26T13:48:51.743Z,4.10
2023-01-26T13:51:24.776Z,4.27
2023-01-26T13:54:02.961Z,3.37
2023-01-26T13:56:33.795Z,4.57
2023-01-26T13:59:07.444Z,3.03
2023-01-26T14:01:42.555Z,3.60
2023-01-26T14:04:15.433Z,4.13
2023-01-26T14:06:48.887Z,3.60
2023-01-26T14:09:17.852Z,3.90
2023-01-26T14:11:53.235Z,4.40
2023-01-26T14:14:26.013Z,3.23
2023-01-26T14:16:54.560Z,4.43
2023-01-26T14:19:24.612Z,3.30
2023-01-26T14:21:55.735Z,4.47
2023-01-26T14:24:28.420Z,3.47
2023-01-26T14:26:56.697Z,3.13
2023-01-26T14:29:28.526Z,3.03
2023-01-26T14:32:00.494Z,4.17
2023-01-26T14:34:30.295Z,2.90
2023-01-26T14:37:15.324Z,4.80
2023-01-26T14:39:45.841Z,3.50
2023-01-26T14:42:16.564Z,4.37
2023-01-26T14:44:45.088Z,3.83
2023-01-26T14:47:19.881Z,4.00
2023-01-26T14:49:52.321Z,4.13
2023-01-26T14:52:26.602Z,3.70
2023-01-26T14:54:57.168Z,3.80
2023-01-26T14:57:28.266Z,3.87
2023-01-26T14:59:58.126Z,2.83
2023-01-26T15:02:28.187Z,3.17
2023-01-26T15:05:00.692Z,4.33
2023-01-26T15:07:39.017Z,3.33
2023-01-26T15:10:36.795Z,3.60
2023-01-26T15:13:18.521Z,4.43
2023-01-26T15:15:49.212Z,4.63
2023-01-26T15:18:22.097Z,4.80
2023-01-26T15:21:00.332Z,5.00
2023-01-26T15:23:31.698Z,4.40
2023-01-26T15:26:07.784Z,4.13
2023-01-26T15:28:36.747Z,4.23
2023-01-26T15:31:05.520Z,4.00
2023-01-26T15:33:49.787Z,3.97
2023-01-26T15:36:30.192Z,4.10
2023-01-26T15:39:02.814Z,3.70
2023-01-26T15:41:31.738Z,4.20
2023-01-26T15:44:00.434Z,4.17
2023-01-26T15:46:28.839Z,3.87
2023-01-26T15:48:57.203Z,3.83
2023-01-26T15:51:25.759Z,4.17
2023-01-26T15:53:54.169Z,4.20
2023-01-26T15:56:23.700Z,3.30
2023-01-26T15:58:52.055Z,4.73
2023-01-26T16:01:22.979Z,3.57
2023-01-26T16:03:51.948Z,3.47
2023-01-26T16:06:25.295Z,2.97
2023-01-26T16:08:54.068Z,3.27
2023-01-26T16:11:27.061Z,3.83
2023-01-26T16:14:03.323Z,4.80
2023-01-26T16:16:32.176Z,3.80
2023-01-26T16:19:00.919Z,4.03
2023-01-26T16:21:33.003Z,5.67
2023-01-26T16:24:02.558Z,3.53
2023-01-26T16:26:32.930Z,3.30
2023-01-26T16:29:01.309Z,2.93
2023-01-26T16:31:31.538Z,3.20
2023-01-26T16:34:01.025Z,3.77
2023-01-26T16:36:30.163Z,3.67
2023-01-26T16:38:58.543Z,3.83
2023-01-26T16:41:28.227Z,3.67
2023-01-26T16:43:59.460Z,4.43
2023-01-26T16:46:28.868Z,2.57
2023-01-26T16:48:57.612Z,2.53
2023-01-26T16:51:28.157Z,3.00
2023-01-26T16:53:57.024Z,2.90
2023-01-26T16:56:26.004Z,2.90
2023-01-26T16:58:54.361Z,3.13
2023-01-26T17:01:25.470Z,3.30
2023-01-26T17:03:53.926Z,3.17
2023-01-26T17:06:22.474Z,5.10
2023-01-26T17:08:51.012Z,3.57
2023-01-26T17:11:20.778Z,3.40
2023-01-26T17:13:49.513Z,3.90
2023-01-26T17:16:19.717Z,4.17
2023-01-26T17:18:50.055Z,4.43
2023-01-26T17:21:20.090Z,4.00
2023-01-26T17:23:50.288Z,3.60
2023-01-26T17:26:19.920Z,3.63
2023-01-26T17:28:50.102Z,3.73
2023-01-26T17:31:20.056Z,3.33
2023-01-26T17:33:51.023Z,4.17
2023-01-26T17:36:20.265Z,4.87
2023-01-26T17:38:49.100Z,4.10
2023-01-26T17:41:17.586Z,3.97
2023-01-26T17:43:47.852Z,3.70
2023-01-26T17:46:17.943Z,4.70
2023-01-26T17:48:46.914Z,5.30
2023-01-26T17:51:18.764Z,4.27
2023-01-26T17:53:50.283Z,6.00
2023-01-26T17:56:19.759Z,3.70
2023-01-26T17:58:49.818Z,4.53
2023-01-26T18:01:18.658Z,4.30
2023-01-26T18:03:47.445Z,3.80
2023-01-26T18:06:17.626Z,5.13
2023-01-26T18:08:46.194Z,4.60
2023-01-26T18:11:16.370Z,3.47
2023-01-26T18:13:45.497Z,4.17
2023-01-26T18:16:17.360Z,3.53
2023-01-26T18:18:45.975Z,4.23
2023-01-26T18:21:17.698Z,4.10
2023-01-26T18:23:47.372Z,3.40
2023-01-26T18:26:16.131Z,4.57
2023-01-26T18:28:45.166Z,5.17
2023-01-26T18:31:15.547Z,4.80
2023-01-26T18:33:44.201Z,4.50
2023-01-26T18:36:18.145Z,4.97
2023-01-26T18:38:50.884Z,4.70
2023-01-26T18:41:20.284Z,4.60
2023-01-26T18:43:51.501Z,4.97
2023-01-26T18:46:20.275Z,4.27
2023-01-26T18:48:53.688Z,4.67
2023-01-26T18:51:22.942Z,4.20
2023-01-26T18:53:52.540Z,3.90
2023-01-26T18:56:20.913Z,3.27
2023-01-26T18:58:49.590Z,4.40
2023-01-26T19:01:21.154Z,3.30
2023-01-26T19:03:56.278Z,4.20
2023-01-26T19:06:25.770Z,5.13
2023-01-26T19:09:01.105Z,4.90
2023-01-26T19:11:31.194Z,5.30
2023-01-26T19:13:59.995Z,4.93
2023-01-26T19:16:28.977Z,4.97
2023-01-26T19:18:57.573Z,4.27
2023-01-26T19:21:27.744Z,3.67
2023-01-26T19:24:02.384Z,4.23
2023-01-26T19:26:31.127Z,4.53
2023-01-26T19:29:00.009Z,3.97
2023-01-26T19:31:29.137Z,4.43
2023-01-26T19:33:59.455Z,3.63
2023-01-26T19:36:28.874Z,3.53
2023-01-26T19:38:58.691Z,3.10
2023-01-26T19:41:27.102Z,3.67
2023-01-26T19:43:55.485Z,3.93
2023-01-26T19:46:23.793Z,3.07
2023-01-26T19:48:52.207Z,5.30
2023-01-26T19:51:21.939Z,3.13
2023-01-26T19:53:52.293Z,3.53
2023-01-26T19:56:23.560Z,4.33
2023-01-26T19:58:53.087Z,3.93
2023-01-26T20:01:22.089Z,4.60
2023-01-26T20:03:51.762Z,4.57
2023-01-26T20:06:22.700Z,4.60
2023-01-26T20:08:51.548Z,3.90
2023-01-26T20:11:25.091Z,3.27
2023-01-26T20:13:56.836Z,3.20
2023-01-26T20:16:28.078Z,3.23
2023-01-26T20:18:56.786Z,3.90
2023-01-26T20:21:25.480Z,2.40
2023-01-26T20:23:55.833Z,2.70
2023-01-26T20:26:26.724Z,3.47
2023-01-26T20:28:58.134Z,3.07
2023-01-26T20:31:27.783Z,3.33
2023-01-26T20:33:56.519Z,4.60
2023-01-26T20:36:27.130Z,3.50
2023-01-26T20:38:55.690Z,2.77
2023-01-26T20:41:27.550Z,3.60
2023-01-26T20:44:00.493Z,3.57
2023-01-26T20:46:31.069Z,3.27
2023-01-26T20:49:00.080Z,3.23
2023-01-26T20:51:30.868Z,3.83
2023-01-26T20:54:00.040Z,3.73
2023-01-26T20:56:30.796Z,2.83
2023-01-26T20:58:59.392Z,3.57
2023-01-26T21:01:28.023Z,3.20
2023-01-26T21:03:56.681Z,3.67
2023-01-26T21:06:26.164Z,3.90
2023-01-26T21:08:56.111Z,4.17
2023-01-26T21:11:26.472Z,3.37
2023-01-26T21:13:56.629Z,2.47
2023-01-26T21:16:25.903Z,3.47
2023-01-26T21:18:54.271Z,2.40
2023-01-26T21:21:22.850Z,2.37
2023-01-26T21:23:51.688Z,2.40
2023-01-26T21:26:22.294Z,2.90
2023-01-26T21:28:51.946Z,3.07
2023-01-26T21:31:22.652Z,2.97
2023-01-26T21:33:51.628Z,3.20
2023-01-26T21:36:21.643Z,2.73
2023-01-26T21:38:52.084Z,3.10
2023-01-26T21:41:39.368Z,3.20
2023-01-26T21:44:09.568Z,3.77
2023-01-26T21:46:39.428Z,5.60
2023-01-26T21:49:08.693Z,4.30
2023-01-26T21:51:55.026Z,4.77
2023-01-26T21:54:23.402Z,3.70
2023-01-26T21:56:52.243Z,4.57
2023-01-26T21:59:20.143Z,4.37
2023-01-26T22:01:51.806Z,4.00
2023-01-26T22:04:22.940Z,5.10
2023-01-26T22:06:52.295Z,3.37
2023-01-26T22:09:21.294Z,4.20
2023-01-26T22:11:50.659Z,3.70
2023-01-26T22:14:20.989Z,3.83
2023-01-26T22:16:50.672Z,3.67
2023-01-26T22:19:19.233Z,3.37
2023-01-26T22:21:47.542Z,3.00
2023-01-26T22:24:17.993Z,3.27
2023-01-26T22:26:46.753Z,3.87
2023-01-26T22:29:15.131Z,3.67
2023-01-26T22:31:43.649Z,2.97
2023-01-26T22:34:13.263Z,2.90
2023-01-26T22:36:41.794Z,2.50
2023-01-26T22:39:12.129Z,3.60
2023-01-26T22:41:40.535Z,3.80
2023-01-26T22:44:09.191Z,4.60
2023-01-26T22:46:37.917Z,4.20
2023-01-26T22:49:06.386Z,4.57
2023-01-26T22:51:37.581Z,4.53
2023-01-26T22:54:06.667Z,3.30
2023-01-26T22:56:35.142Z,3.77
2023-01-26T22:59:03.825Z,3.47
2023-01-26T23:01:33.725Z,4.17
2023-01-26T23:04:02.465Z,3.57
2023-01-26T23:06:31.163Z,3.60
2023-01-26T23:09:04.820Z,3.97
2023-01-26T23:11:33.299Z,3.73
2023-01-26T23:14:02.012Z,3.17
2023-01-26T23:16:30.683Z,2.80
2023-01-26T23:19:00.172Z,3.07
2023-01-26T23:21:29.499Z,3.40
2023-01-26T23:23:58.116Z,3.27
2023-01-26T23:26:27.994Z,3.53
2023-01-26T23:28:56.538Z,3.10
2023-01-26T23:31:24.967Z,3.67
2023-01-26T23:33:53.775Z,3.63
2023-01-26T23:36:22.265Z,4.00
2023-01-26T23:38:50.536Z,3.00
2023-01-26T23:41:19.157Z,4.33
2023-01-26T23:43:48.886Z,2.90
2023-01-26T23:46:17.443Z,3.23
2023-01-26T23:48:45.837Z,3.63
2023-01-26T23:51:14.314Z,3.20
2023-01-26T23:53:42.560Z,3.10
2023-01-26T23:56:14.434Z,2.90
2023-01-26T23:58:42.924Z,3.30
